CSN2505 UUEE-RJAA
Flight info
| Callsign | CSN2505 |
|---|---|
| Flight time | N/A |
| Altitude | 32998 |
| Route | TOGMO M56 ABAGI W21 NIMTA DCT SL A964 NOKLI N72 GORNU B945 MKL A955 LURIS N37 SARPI DCT ODALI DCT GEM A285 MUT R55 KETEK DCT TOMBI A16 CVO DCT SOKOT |
| Aircraft | A333/H-V/N |
Departure
| Time | 2026-04-30 11:42 |
|---|---|
| Airport | Sheremetyevo International Airport (UUEE) |
Arrival
| Time | N/A |
|---|---|
| Airport | Narita International Airport (RJAA) |
| Time | Latitude | Longitude | Altitude | Speed | Heading |
|---|---|---|---|---|---|
| 2026-04-30 11:23 | 55.96612 | 37.41868 | 647 ft | 0 kts | 325° |
| 2026-04-30 11:32 | 55.96602 | 37.41880 | 648 ft | 4 kts | 325° |
| 2026-04-30 11:33 | 55.96560 | 37.41930 | 650 ft | 4 kts | 353° |
| 2026-04-30 11:33 | 55.96542 | 37.41927 | 648 ft | 4 kts | 42° |
| 2026-04-30 11:33 | 55.96530 | 37.41895 | 650 ft | 2 kts | 74° |
| 2026-04-30 11:33 | 55.96530 | 37.41892 | 651 ft | 0 kts | 75° |
| 2026-04-30 11:35 | 55.96531 | 37.41900 | 650 ft | 3 kts | 75° |
| 2026-04-30 11:36 | 55.96542 | 37.41974 | 647 ft | 9 kts | 75° |
| 2026-04-30 11:36 | 55.96589 | 37.42078 | 647 ft | 14 kts | 16° |
| 2026-04-30 11:36 | 55.96688 | 37.42050 | 647 ft | 14 kts | 347° |
| 2026-04-30 11:36 | 55.96776 | 37.42012 | 647 ft | 10 kts | 345° |
| 2026-04-30 11:37 | 55.96849 | 37.41975 | 647 ft | 9 kts | 344° |
| 2026-04-30 11:37 | 55.96921 | 37.41939 | 647 ft | 12 kts | 344° |
| 2026-04-30 11:37 | 55.96997 | 37.41980 | 647 ft | 13 kts | 54° |
| 2026-04-30 11:37 | 55.97028 | 37.42147 | 647 ft | 16 kts | 74° |
| 2026-04-30 11:38 | 55.97059 | 37.42356 | 649 ft | 19 kts | 75° |
| 2026-04-30 11:38 | 55.97096 | 37.42596 | 647 ft | 22 kts | 75° |
| 2026-04-30 11:38 | 55.97139 | 37.42886 | 647 ft | 26 kts | 75° |
| 2026-04-30 11:38 | 55.97186 | 37.43203 | 647 ft | 26 kts | 75° |
| 2026-04-30 11:39 | 55.97234 | 37.43525 | 650 ft | 27 kts | 75° |
| 2026-04-30 11:39 | 55.97284 | 37.43859 | 647 ft | 29 kts | 75° |
| 2026-04-30 11:39 | 55.97334 | 37.44196 | 647 ft | 19 kts | 75° |
| 2026-04-30 11:39 | 55.97393 | 37.44392 | 647 ft | 17 kts | 30° |
| 2026-04-30 11:40 | 55.97502 | 37.44392 | 647 ft | 16 kts | 345° |
| 2026-04-30 11:40 | 55.97555 | 37.44254 | 647 ft | 14 kts | 262° |
| 2026-04-30 11:40 | 55.97552 | 37.44235 | 647 ft | 0 kts | 256° |
| 2026-04-30 11:40 | 55.97551 | 37.44227 | 647 ft | 3 kts | 256° |
| 2026-04-30 11:41 | 55.97493 | 37.43838 | 647 ft | 67 kts | 255° |
| 2026-04-30 11:41 | 55.97316 | 37.42669 | 650 ft | 125 kts | 255° |
| 2026-04-30 11:41 | 55.97060 | 37.40928 | 734 ft | 157 kts | 257° |
| 2026-04-30 11:41 | 55.96761 | 37.39013 | 1121 ft | 162 kts | 255° |
| 2026-04-30 11:42 | 55.96429 | 37.37125 | 1726 ft | 158 kts | 244° |
| 2026-04-30 11:42 | 55.95699 | 37.35581 | 1964 ft | 175 kts | 221° |
| 2026-04-30 11:42 | 55.94745 | 37.34000 | 2047 ft | 200 kts | 226° |
| 2026-04-30 11:42 | 55.93836 | 37.32083 | 2505 ft | 202 kts | 241° |
| 2026-04-30 11:43 | 55.93095 | 37.29953 | 3099 ft | 203 kts | 242° |
| 2026-04-30 11:43 | 55.92361 | 37.27782 | 3691 ft | 203 kts | 241° |
| 2026-04-30 11:43 | 55.91629 | 37.25597 | 4242 ft | 207 kts | 242° |
| 2026-04-30 11:43 | 55.90903 | 37.23412 | 4812 ft | 208 kts | 242° |
| 2026-04-30 11:44 | 55.90164 | 37.21180 | 5398 ft | 209 kts | 242° |
| 2026-04-30 11:44 | 55.89426 | 37.18944 | 5956 ft | 210 kts | 242° |
| 2026-04-30 11:44 | 55.88657 | 37.16718 | 6504 ft | 213 kts | 229° |
| 2026-04-30 11:44 | 55.87435 | 37.15246 | 6935 ft | 219 kts | 193° |
| 2026-04-30 11:45 | 55.85906 | 37.15231 | 7337 ft | 226 kts | 158° |
| 2026-04-30 11:45 | 55.84596 | 37.16739 | 7741 ft | 228 kts | 124° |
| 2026-04-30 11:45 | 55.84076 | 37.18356 | 8008 ft | 228 kts | 101° |
| 2026-04-30 11:45 | 55.83657 | 37.21087 | 8472 ft | 229 kts | 108° |
| 2026-04-30 11:46 | 55.83012 | 37.23673 | 8965 ft | 231 kts | 120° |
| 2026-04-30 11:46 | 55.82176 | 37.26135 | 9376 ft | 233 kts | 108° |
| 2026-04-30 11:46 | 55.81953 | 37.28930 | 9780 ft | 230 kts | 75° |
| 2026-04-30 11:46 | 55.82590 | 37.31470 | 10130 ft | 225 kts | 41° |
| 2026-04-30 11:47 | 55.83835 | 37.33137 | 10460 ft | 225 kts | 28° |
| 2026-04-30 11:47 | 55.85119 | 37.34712 | 10912 ft | 224 kts | 36° |
| 2026-04-30 11:47 | 55.86319 | 37.36518 | 11283 ft | 227 kts | 41° |
| 2026-04-30 11:47 | 55.87458 | 37.38486 | 11661 ft | 229 kts | 44° |
| 2026-04-30 11:48 | 55.88543 | 37.40530 | 12036 ft | 230 kts | 45° |
| 2026-04-30 11:48 | 55.89620 | 37.42670 | 12418 ft | 232 kts | 46° |
| 2026-04-30 11:48 | 55.90678 | 37.44848 | 12808 ft | 233 kts | 47° |
| 2026-04-30 11:48 | 55.91732 | 37.47066 | 13175 ft | 235 kts | 47° |
| 2026-04-30 11:49 | 55.92783 | 37.49309 | 13553 ft | 236 kts | 48° |
| 2026-04-30 11:49 | 55.93834 | 37.51573 | 13938 ft | 237 kts | 48° |
| 2026-04-30 11:49 | 55.94938 | 37.53761 | 14265 ft | 238 kts | 40° |
| 2026-04-30 11:49 | 55.96161 | 37.55759 | 14592 ft | 239 kts | 39° |
| 2026-04-30 11:50 | 55.97392 | 37.57758 | 14914 ft | 240 kts | 40° |
| 2026-04-30 11:50 | 55.98607 | 37.59758 | 15226 ft | 241 kts | 40° |
| 2026-04-30 11:50 | 55.99838 | 37.61805 | 15549 ft | 243 kts | 41° |
| 2026-04-30 11:50 | 56.01078 | 37.63877 | 15856 ft | 244 kts | 41° |
| 2026-04-30 11:51 | 56.02322 | 37.65965 | 16176 ft | 246 kts | 41° |
| 2026-04-30 11:51 | 56.03571 | 37.68065 | 16480 ft | 247 kts | 41° |
| 2026-04-30 11:51 | 56.04826 | 37.70179 | 16793 ft | 248 kts | 41° |
| 2026-04-30 11:51 | 56.06086 | 37.72304 | 17110 ft | 249 kts | 41° |
| 2026-04-30 11:52 | 56.07354 | 37.74446 | 17420 ft | 251 kts | 41° |
| 2026-04-30 11:52 | 56.08627 | 37.76599 | 17722 ft | 252 kts | 41° |
| 2026-04-30 11:52 | 56.09883 | 37.78751 | 18022 ft | 254 kts | 44° |
| 2026-04-30 11:52 | 56.11104 | 37.81058 | 18341 ft | 256 kts | 45° |
| 2026-04-30 11:53 | 56.12319 | 37.83397 | 18634 ft | 257 kts | 45° |
| 2026-04-30 11:53 | 56.13544 | 37.85739 | 18908 ft | 258 kts | 44° |
| 2026-04-30 11:53 | 56.14797 | 37.88047 | 19144 ft | 259 kts | 34° |
| 2026-04-30 11:53 | 56.16406 | 37.89435 | 19247 ft | 260 kts | 4° |
| 2026-04-30 11:54 | 56.18231 | 37.89326 | 19372 ft | 267 kts | 347° |
| 2026-04-30 11:54 | 56.20102 | 37.88812 | 19502 ft | 280 kts | 354° |
| 2026-04-30 11:54 | 56.22104 | 37.88607 | 19595 ft | 295 kts | 359° |
| 2026-04-30 11:54 | 56.24181 | 37.88672 | 19683 ft | 310 kts | 2° |
| 2026-04-30 11:55 | 56.26397 | 37.88905 | 19765 ft | 327 kts | 3° |
| 2026-04-30 11:55 | 56.28719 | 37.89225 | 19847 ft | 342 kts | 4° |
| 2026-04-30 11:55 | 56.31151 | 37.89549 | 19974 ft | 356 kts | 3° |
| 2026-04-30 11:55 | 56.33633 | 37.89867 | 20555 ft | 356 kts | 3° |
| 2026-04-30 11:56 | 56.36116 | 37.90187 | 21076 ft | 359 kts | 3° |
| 2026-04-30 11:56 | 56.38631 | 37.90516 | 21603 ft | 362 kts | 4° |
| 2026-04-30 11:56 | 56.41113 | 37.90845 | 22144 ft | 364 kts | 4° |
| 2026-04-30 11:56 | 56.43659 | 37.91192 | 22488 ft | 372 kts | 4° |
| 2026-04-30 11:57 | 56.46292 | 37.91552 | 22585 ft | 386 kts | 4° |
| 2026-04-30 11:57 | 56.49023 | 37.91924 | 22674 ft | 399 kts | 4° |
| 2026-04-30 11:57 | 56.51842 | 37.92307 | 22762 ft | 413 kts | 4° |
| 2026-04-30 11:57 | 56.54754 | 37.92704 | 22854 ft | 425 kts | 4° |
| 2026-04-30 11:58 | 56.57733 | 37.93110 | 23298 ft | 428 kts | 4° |
| 2026-04-30 11:58 | 56.60670 | 37.93512 | 24213 ft | 419 kts | 4° |
| 2026-04-30 11:58 | 56.63517 | 37.93901 | 24982 ft | 413 kts | 4° |
| 2026-04-30 11:58 | 56.66397 | 37.94295 | 25352 ft | 417 kts | 4° |
| 2026-04-30 11:59 | 56.69260 | 37.94688 | 25767 ft | 419 kts | 4° |
| 2026-04-30 11:59 | 56.72172 | 37.95625 | 26167 ft | 422 kts | 19° |
| 2026-04-30 11:59 | 56.74776 | 37.98117 | 26576 ft | 426 kts | 37° |
| 2026-04-30 11:59 | 56.76860 | 38.01972 | 26933 ft | 433 kts | 54° |
| 2026-04-30 12:00 | 56.78245 | 38.06869 | 27195 ft | 440 kts | 70° |
| 2026-04-30 12:00 | 56.79271 | 38.12144 | 27466 ft | 441 kts | 60° |
| 2026-04-30 12:00 | 56.80996 | 38.16718 | 27773 ft | 436 kts | 43° |
| 2026-04-30 12:00 | 56.83245 | 38.20442 | 28076 ft | 437 kts | 38° |
| 2026-04-30 12:01 | 56.85571 | 38.24058 | 28345 ft | 440 kts | 40° |
| 2026-04-30 12:01 | 56.87778 | 38.27849 | 28681 ft | 442 kts | 42° |
| 2026-04-30 12:01 | 56.90060 | 38.31629 | 28962 ft | 443 kts | 39° |
| 2026-04-30 12:01 | 56.92432 | 38.35260 | 29283 ft | 445 kts | 38° |
| 2026-04-30 12:02 | 56.94821 | 38.38899 | 29546 ft | 448 kts | 38° |
| 2026-04-30 12:02 | 56.97206 | 38.42612 | 29852 ft | 450 kts | 39° |
| 2026-04-30 12:02 | 56.99588 | 38.46368 | 30154 ft | 452 kts | 39° |
| 2026-04-30 12:02 | 57.01979 | 38.50144 | 30401 ft | 454 kts | 39° |
| 2026-04-30 12:03 | 57.04387 | 38.53940 | 30598 ft | 457 kts | 39° |
| 2026-04-30 12:03 | 57.09231 | 38.61587 | 31003 ft | 462 kts | 39° |
| 2026-04-30 12:03 | 57.11636 | 38.65397 | 31194 ft | 464 kts | 39° |
| 2026-04-30 12:04 | 57.14088 | 38.69288 | 31370 ft | 466 kts | 39° |
| 2026-04-30 12:04 | 57.16552 | 38.73206 | 31554 ft | 469 kts | 39° |
| 2026-04-30 12:04 | 57.19026 | 38.77147 | 31729 ft | 471 kts | 39° |
| 2026-04-30 12:04 | 57.21509 | 38.81108 | 31893 ft | 473 kts | 39° |
| 2026-04-30 12:05 | 57.24009 | 38.85105 | 32065 ft | 475 kts | 39° |
| 2026-04-30 12:05 | 57.26511 | 38.89112 | 32234 ft | 478 kts | 39° |
| 2026-04-30 12:05 | 57.29029 | 38.93152 | 32404 ft | 480 kts | 39° |
| 2026-04-30 12:05 | 57.31551 | 38.97208 | 32580 ft | 482 kts | 40° |
| 2026-04-30 12:06 | 57.34089 | 39.01294 | 32720 ft | 484 kts | 40° |
| 2026-04-30 12:06 | 57.36636 | 39.05405 | 32910 ft | 486 kts | 40° |
| 2026-04-30 12:06 | 57.39191 | 39.09538 | 33047 ft | 488 kts | 40° |
| 2026-04-30 12:06 | 57.41727 | 39.13646 | 33153 ft | 490 kts | 40° |
| 2026-04-30 12:07 | 57.44299 | 39.17820 | 33198 ft | 491 kts | 40° |
| 2026-04-30 12:07 | 57.49444 | 39.26197 | 33209 ft | 492 kts | 40° |
| 2026-04-30 12:08 | 57.54571 | 39.34637 | 33207 ft | 491 kts | 40° |
| 2026-04-30 12:08 | 57.59714 | 39.43020 | 33204 ft | 491 kts | 40° |
| 2026-04-30 12:09 | 57.64852 | 39.51440 | 33204 ft | 491 kts | 40° |
| 2026-04-30 12:09 | 57.69952 | 39.59838 | 33199 ft | 491 kts | 40° |
| 2026-04-30 12:10 | 57.75081 | 39.68311 | 33201 ft | 492 kts | 40° |
| 2026-04-30 12:10 | 57.80195 | 39.76796 | 33200 ft | 492 kts | 40° |
| 2026-04-30 12:11 | 57.85317 | 39.85326 | 33200 ft | 492 kts | 40° |